createdAt,value
2018-07-25T00:00:01.999Z,0
2018-07-25T00:01:02.262Z,0
2018-07-25T00:02:02.258Z,0
2018-07-25T00:03:02.004Z,0
2018-07-25T00:04:02.244Z,0
2018-07-25T00:05:01.983Z,0
2018-07-25T00:06:02.237Z,0
2018-07-25T00:07:01.976Z,0
2018-07-25T00:08:01.975Z,0
2018-07-25T00:09:01.972Z,0
2018-07-25T00:10:01.709Z,0
2018-07-25T00:11:02.217Z,0
2018-07-25T00:12:02.242Z,0
2018-07-25T00:13:01.697Z,0
2018-07-25T00:14:01.955Z,0
2018-07-25T00:15:01.955Z,0
2018-07-25T00:16:01.954Z,0
2018-07-25T00:17:01.997Z,0
2018-07-25T00:18:02.200Z,0
2018-07-25T00:19:02.198Z,0
2018-07-25T00:20:02.192Z,0
2018-07-25T00:21:02.184Z,0
2018-07-25T00:22:01.680Z,0
2018-07-25T00:23:02.189Z,0
2018-07-25T00:24:02.193Z,0
2018-07-25T00:25:02.190Z,0
2018-07-25T00:26:01.927Z,0
2018-07-25T00:27:01.920Z,0
2018-07-25T00:28:02.176Z,0
2018-07-25T00:29:02.169Z,0
2018-07-25T00:30:02.170Z,0
2018-07-25T00:31:01.907Z,0
2018-07-25T00:32:02.157Z,0
2018-07-25T00:33:01.901Z,0
2018-07-25T00:34:01.907Z,0
2018-07-25T00:35:02.203Z,0
2018-07-25T00:36:01.891Z,0
2018-07-25T00:37:01.892Z,0
2018-07-25T00:38:01.899Z,0
2018-07-25T00:39:01.883Z,0
2018-07-25T00:40:01.881Z,0
2018-07-25T00:41:01.620Z,0
2018-07-25T00:42:02.143Z,0
2018-07-25T00:43:01.885Z,0
2018-07-25T00:44:02.132Z,0
2018-07-25T00:45:02.120Z,0
2018-07-25T00:46:01.858Z,0
2018-07-25T00:47:02.127Z,0
2018-07-25T00:48:02.115Z,0
2018-07-25T00:49:01.858Z,0
2018-07-25T00:50:01.887Z,0
2018-07-25T00:51:01.584Z,0
2018-07-25T00:52:02.099Z,0
2018-07-25T00:53:02.101Z,0
2018-07-25T00:54:02.093Z,0
2018-07-25T00:55:01.830Z,0
2018-07-25T00:56:01.839Z,0
2018-07-25T00:57:01.832Z,0
2018-07-25T00:58:01.566Z,0
2018-07-25T00:59:01.822Z,0
2018-07-25T01:00:01.821Z,0
2018-07-25T01:01:02.080Z,0
2018-07-25T01:02:02.070Z,0
2018-07-25T01:03:02.073Z,0
2018-07-25T01:04:01.800Z,0
2018-07-25T01:05:01.803Z,0
2018-07-25T01:06:02.051Z,0
2018-07-25T01:07:02.053Z,0
2018-07-25T01:08:01.790Z,0
2018-07-25T01:09:02.041Z,0
2018-07-25T01:10:01.783Z,0
2018-07-25T01:11:01.523Z,0
2018-07-25T01:12:02.029Z,0
2018-07-25T01:13:02.029Z,0
2018-07-25T01:14:01.770Z,0
2018-07-25T01:15:01.769Z,0
2018-07-25T01:16:02.016Z,0
2018-07-25T01:17:01.758Z,0
2018-07-25T01:18:01.749Z,0
2018-07-25T01:19:02.011Z,0
2018-07-25T01:20:02.024Z,0
2018-07-25T01:21:01.742Z,0
2018-07-25T01:22:01.737Z,0
2018-07-25T01:23:01.732Z,0
2018-07-25T01:24:01.998Z,0
2018-07-25T01:25:01.528Z,0
2018-07-25T01:26:01.718Z,0
2018-07-25T01:27:01.726Z,0
2018-07-25T01:28:01.459Z,0
2018-07-25T01:29:01.982Z,0
2018-07-25T01:30:01.457Z,0
2018-07-25T01:31:01.967Z,0
2018-07-25T01:32:01.188Z,0
2018-07-25T01:33:01.695Z,0
2018-07-25T01:34:01.691Z,0
2018-07-25T01:35:01.702Z,0
2018-07-25T01:36:01.434Z,0
2018-07-25T01:37:01.426Z,0
2018-07-25T01:38:01.680Z,0
2018-07-25T01:39:01.672Z,0
2018-07-25T01:40:01.678Z,0
2018-07-25T01:41:01.926Z,0
2018-07-25T01:42:01.661Z,0
2018-07-25T01:43:01.916Z,0
2018-07-25T01:44:01.666Z,0
2018-07-25T01:45:01.655Z,0
2018-07-25T01:46:01.645Z,0
2018-07-25T01:47:01.649Z,0
2018-07-25T01:48:01.132Z,0
2018-07-25T01:49:01.643Z,0
2018-07-25T01:50:01.641Z,0
2018-07-25T01:51:01.922Z,0
2018-07-25T01:52:01.886Z,0
2018-07-25T01:53:01.876Z,0
2018-07-25T01:54:01.362Z,0
2018-07-25T01:55:01.870Z,0
2018-07-25T01:56:01.872Z,0
2018-07-25T01:57:01.605Z,0
2018-07-25T01:58:01.861Z,0
2018-07-25T01:59:01.596Z,0
2018-07-25T02:00:01.346Z,0
2018-07-25T02:01:01.847Z,0
2018-07-25T02:02:01.326Z,0
2018-07-25T02:03:01.343Z,0
2018-07-25T02:04:01.582Z,0
2018-07-25T02:05:01.829Z,0
2018-07-25T02:06:01.826Z,0
2018-07-25T02:07:01.820Z,0
2018-07-25T02:08:01.555Z,0
2018-07-25T02:09:01.559Z,0
2018-07-25T02:10:01.300Z,0
2018-07-25T02:11:01.806Z,0
2018-07-25T02:12:01.817Z,0
2018-07-25T02:13:01.284Z,0
2018-07-25T02:14:01.802Z,0
2018-07-25T02:15:01.554Z,0
2018-07-25T02:16:01.569Z,0
2018-07-25T02:17:01.528Z,0
2018-07-25T02:18:01.525Z,0
2018-07-25T02:19:01.260Z,0
2018-07-25T02:20:01.776Z,0
2018-07-25T02:21:01.504Z,0
2018-07-25T02:22:01.254Z,0
2018-07-25T02:23:01.501Z,0
2018-07-25T02:24:01.491Z,0
2018-07-25T02:25:01.754Z,0
2018-07-25T02:26:01.741Z,0
2018-07-25T02:27:01.482Z,0
2018-07-25T02:28:01.477Z,0
2018-07-25T02:29:01.739Z,0
2018-07-25T02:30:01.210Z,0
2018-07-25T02:31:01.731Z,0
2018-07-25T02:32:01.207Z,0
2018-07-25T02:33:01.748Z,0
2018-07-25T02:34:01.708Z,0
2018-07-25T02:35:01.712Z,0
2018-07-25T02:36:01.712Z,0
2018-07-25T02:37:01.707Z,0
2018-07-25T02:38:01.452Z,0
2018-07-25T02:39:01.699Z,0
2018-07-25T02:40:01.427Z,0
2018-07-25T02:41:01.428Z,0
2018-07-25T02:42:01.679Z,0
2018-07-25T02:43:01.678Z,0
2018-07-25T02:44:01.744Z,0
2018-07-25T02:45:01.671Z,0
2018-07-25T02:46:01.396Z,0
2018-07-25T02:47:01.701Z,0
2018-07-25T02:48:01.646Z,0
2018-07-25T02:49:01.646Z,0
2018-07-25T02:50:01.137Z,0
2018-07-25T02:51:01.638Z,0
2018-07-25T02:52:00.862Z,0
2018-07-25T02:53:01.637Z,0
2018-07-25T02:54:01.631Z,0
2018-07-25T02:55:01.615Z,0
2018-07-25T02:56:01.358Z,0
2018-07-25T02:57:01.063Z,0
2018-07-25T02:58:01.350Z,0
2018-07-25T02:59:01.351Z,0
2018-07-25T03:00:01.600Z,0
2018-07-25T03:01:01.079Z,0
2018-07-25T03:02:01.332Z,0
2018-07-25T03:03:01.577Z,0
2018-07-25T03:04:01.580Z,0
2018-07-25T03:05:01.625Z,0
2018-07-25T03:06:01.572Z,0
2018-07-25T03:07:01.569Z,0
2018-07-25T03:08:01.559Z,0
2018-07-25T03:09:01.493Z,0
2018-07-25T03:10:01.302Z,0
2018-07-25T03:11:01.289Z,0
2018-07-25T03:12:01.290Z,0
2018-07-25T03:13:01.532Z,0
2018-07-25T03:14:01.288Z,0
2018-07-25T03:15:01.533Z,0
2018-07-25T03:16:01.532Z,0
2018-07-25T03:17:01.266Z,0
2018-07-25T03:18:01.269Z,0
2018-07-25T03:19:01.512Z,0
2018-07-25T03:20:01.552Z,0
2018-07-25T03:21:01.518Z,0
2018-07-25T03:22:00.990Z,0
2018-07-25T03:23:01.498Z,5
2018-07-25T03:24:01.489Z,5
2018-07-25T03:25:01.226Z,5
2018-07-25T03:26:01.490Z,5
2018-07-25T03:27:01.493Z,5
2018-07-25T03:28:01.213Z,5
2018-07-25T03:29:01.474Z,5
2018-07-25T03:30:01.456Z,5
2018-07-25T03:31:01.206Z,5
2018-07-25T03:32:01.469Z,10
2018-07-25T03:33:01.449Z,10
2018-07-25T03:34:01.449Z,10
2018-07-25T03:35:01.433Z,10
2018-07-25T03:36:01.439Z,10
2018-07-25T03:37:00.909Z,10
2018-07-25T03:38:01.423Z,10
2018-07-25T03:39:01.155Z,15
2018-07-25T03:40:01.162Z,15
2018-07-25T03:41:01.156Z,15
2018-07-25T03:42:01.141Z,15
2018-07-25T03:43:00.895Z,15
2018-07-25T03:44:01.394Z,15
2018-07-25T03:45:01.387Z,20
2018-07-25T03:46:01.386Z,20
2018-07-25T03:47:01.124Z,20
2018-07-25T03:48:00.861Z,20
2018-07-25T03:49:01.115Z,20
2018-07-25T03:50:01.379Z,25
2018-07-25T03:51:01.363Z,25
2018-07-25T03:52:01.102Z,25
2018-07-25T03:53:00.838Z,25
2018-07-25T03:54:01.097Z,25
2018-07-25T03:55:01.350Z,25
2018-07-25T03:56:01.081Z,30
2018-07-25T03:57:01.331Z,30
2018-07-25T03:58:01.328Z,30
2018-07-25T03:59:01.318Z,30
2018-07-25T04:00:01.329Z,30
2018-07-25T04:01:01.324Z,35
2018-07-25T04:02:01.354Z,35
2018-07-25T04:03:01.307Z,35
2018-07-25T04:04:01.050Z,35
2018-07-25T04:05:01.296Z,35
2018-07-25T04:06:01.049Z,40
2018-07-25T04:07:01.030Z,40
2018-07-25T04:08:01.028Z,40
2018-07-25T04:09:01.307Z,40
2018-07-25T04:10:01.020Z,40
2018-07-25T04:11:01.284Z,45
2018-07-25T04:12:01.013Z,45
2018-07-25T04:13:01.268Z,45
2018-07-25T04:14:00.736Z,45
2018-07-25T04:15:00.733Z,45
2018-07-25T04:16:00.733Z,50
2018-07-25T04:17:00.990Z,50
2018-07-25T04:18:01.246Z,50
2018-07-25T04:19:01.230Z,50
2018-07-25T04:20:01.233Z,50
2018-07-25T04:21:01.264Z,55
2018-07-25T04:22:01.219Z,55
2018-07-25T04:23:01.219Z,55
2018-07-25T04:24:01.219Z,55
2018-07-25T04:25:00.951Z,55
2018-07-25T04:26:01.201Z,55
2018-07-25T04:27:00.947Z,60
2018-07-25T04:28:00.428Z,60
2018-07-25T04:29:00.940Z,60
2018-07-25T04:30:00.928Z,60
2018-07-25T04:31:01.182Z,60
2018-07-25T04:32:00.919Z,60
2018-07-25T04:33:00.913Z,65
2018-07-25T04:34:00.914Z,65
2018-07-25T04:35:00.771Z,65
2018-07-25T04:36:00.902Z,65
2018-07-25T04:37:00.640Z,65
2018-07-25T04:38:00.891Z,65
2018-07-25T04:39:00.889Z,70
2018-07-25T04:40:01.144Z,70
2018-07-25T04:41:00.884Z,70
2018-07-25T04:42:00.616Z,70
2018-07-25T04:43:00.879Z,70
2018-07-25T04:44:00.872Z,70
2018-07-25T04:45:00.865Z,70
2018-07-25T04:46:00.655Z,75
2018-07-25T04:47:00.851Z,75
2018-07-25T04:48:00.604Z,75
2018-07-25T04:49:00.848Z,75
2018-07-25T04:50:01.106Z,75
2018-07-25T04:51:01.099Z,75
2018-07-25T04:52:00.838Z,80
2018-07-25T04:53:01.089Z,80
2018-07-25T04:54:00.819Z,80
2018-07-25T04:55:00.822Z,80
2018-07-25T04:56:01.160Z,80
2018-07-25T04:57:01.072Z,80
2018-07-25T04:58:01.074Z,80
2018-07-25T04:59:01.066Z,85
2018-07-25T05:00:00.334Z,85
2018-07-25T05:01:00.542Z,85
2018-07-25T05:02:00.533Z,85
2018-07-25T05:03:00.532Z,85
2018-07-25T05:04:00.793Z,85
2018-07-25T05:05:01.036Z,90
2018-07-25T05:06:00.790Z,90
2018-07-25T05:07:00.555Z,90
2018-07-25T05:08:00.519Z,100
2018-07-25T05:09:01.027Z,110
2018-07-25T05:10:00.766Z,115
2018-07-25T05:11:00.757Z,110
2018-07-25T05:12:00.755Z,105
2018-07-25T05:13:01.015Z,100
2018-07-25T05:14:01.004Z,95
2018-07-25T05:15:01.004Z,95
2018-07-25T05:16:00.491Z,95
2018-07-25T05:17:00.990Z,95
2018-07-25T05:18:01.011Z,95
2018-07-25T05:19:00.991Z,95
2018-07-25T05:20:00.780Z,100
2018-07-25T05:21:00.728Z,100
2018-07-25T05:22:00.721Z,100
2018-07-25T05:23:00.976Z,100
2018-07-25T05:24:00.458Z,100
2018-07-25T05:25:00.978Z,100
2018-07-25T05:26:00.968Z,100
2018-07-25T05:27:00.717Z,105
2018-07-25T05:28:00.958Z,105
2018-07-25T05:29:00.446Z,105
2018-07-25T05:30:00.701Z,105
2018-07-25T05:31:00.694Z,105
2018-07-25T05:32:00.693Z,105
2018-07-25T05:33:00.705Z,105
2018-07-25T05:34:00.690Z,105
2018-07-25T05:35:00.430Z,105
2018-07-25T05:36:00.677Z,110
2018-07-25T05:37:00.937Z,110
2018-07-25T05:38:00.702Z,110
2018-07-25T05:39:00.671Z,110
2018-07-25T05:40:00.668Z,110
2018-07-25T05:41:00.924Z,110
2018-07-25T05:42:00.919Z,110
2018-07-25T05:43:00.656Z,110
2018-07-25T05:44:00.572Z,115
2018-07-25T05:45:00.919Z,115
2018-07-25T05:46:00.949Z,115
2018-07-25T05:47:00.907Z,115
2018-07-25T05:48:00.650Z,115
2018-07-25T05:49:00.898Z,115
2018-07-25T05:50:00.641Z,115
2018-07-25T05:51:00.382Z,115
2018-07-25T05:52:00.892Z,120
2018-07-25T05:53:00.890Z,120
2018-07-25T05:54:00.632Z,120
2018-07-25T05:55:00.627Z,120
2018-07-25T05:56:00.880Z,120
2018-07-25T05:57:01.008Z,120
2018-07-25T05:58:00.872Z,120
2018-07-25T05:59:00.891Z,120
2018-07-25T06:00:00.360Z,120
2018-07-25T06:01:00.615Z,125
2018-07-25T06:02:00.611Z,125
2018-07-25T06:03:01.164Z,125
2018-07-25T06:04:00.351Z,125
2018-07-25T06:05:00.862Z,125
2018-07-25T06:06:00.872Z,125
2018-07-25T06:07:00.602Z,125
2018-07-25T06:08:00.852Z,125
2018-07-25T06:09:00.864Z,125
2018-07-25T06:10:00.591Z,125
2018-07-25T06:11:00.878Z,125
2018-07-25T06:12:00.597Z,125
2018-07-25T06:13:00.849Z,125
2018-07-25T06:14:00.593Z,125
2018-07-25T06:15:00.594Z,125
2018-07-25T06:16:00.582Z,125
2018-07-25T06:17:00.833Z,125
2018-07-25T06:18:00.576Z,125
2018-07-25T06:19:00.574Z,130
2018-07-25T06:20:00.580Z,130
2018-07-25T06:21:00.830Z,130
2018-07-25T06:22:00.576Z,130
2018-07-25T06:23:00.568Z,130
2018-07-25T06:24:00.826Z,130
2018-07-25T06:25:00.823Z,130
2018-07-25T06:26:00.758Z,130
2018-07-25T06:27:00.814Z,130
2018-07-25T06:28:00.820Z,130
2018-07-25T06:29:00.823Z,130
2018-07-25T06:30:00.819Z,130
2018-07-25T06:31:00.864Z,130
2018-07-25T06:32:00.301Z,135
2018-07-25T06:33:00.817Z,135
2018-07-25T06:34:00.040Z,135
2018-07-25T06:35:01.055Z,135
2018-07-25T06:36:00.816Z,135
2018-07-25T06:37:00.826Z,135
2018-07-25T06:38:00.877Z,135
2018-07-25T06:39:00.808Z,135
2018-07-25T06:40:00.547Z,135
2018-07-25T06:41:00.809Z,140
2018-07-25T06:42:00.814Z,140
2018-07-25T06:43:00.819Z,150
2018-07-25T06:44:00.801Z,155
2018-07-25T06:45:00.797Z,170
2018-07-25T06:46:00.539Z,175
2018-07-25T06:47:00.802Z,175
2018-07-25T06:48:00.557Z,210
2018-07-25T06:49:00.292Z,245
2018-07-25T06:50:00.297Z,265
2018-07-25T06:51:00.928Z,325
2018-07-25T06:52:00.556Z,325
2018-07-25T06:53:00.281Z,280
2018-07-25T06:54:00.798Z,255
2018-07-25T06:55:00.800Z,340
2018-07-25T06:56:00.535Z,435
2018-07-25T06:57:00.281Z,455
2018-07-25T06:58:00.540Z,415
2018-07-25T06:59:00.808Z,345
2018-07-25T07:00:00.544Z,365
2018-07-25T07:01:00.288Z,435
2018-07-25T07:02:00.293Z,430
2018-07-25T07:03:00.550Z,430
2018-07-25T07:04:00.807Z,440
2018-07-25T07:05:00.821Z,435
2018-07-25T07:06:00.562Z,425
2018-07-25T07:07:00.784Z,430
2018-07-25T07:08:00.316Z,440
2018-07-25T07:09:00.306Z,435
2018-07-25T07:10:00.319Z,430
2018-07-25T07:11:00.835Z,420
2018-07-25T07:12:00.453Z,425
2018-07-25T07:13:00.586Z,425
2018-07-25T07:14:00.590Z,415
2018-07-25T07:15:00.856Z,400
2018-07-25T07:16:00.600Z,395
2018-07-25T07:17:00.609Z,410
2018-07-25T07:18:00.872Z,410
2018-07-25T07:19:00.610Z,405
2018-07-25T07:20:00.636Z,410
2018-07-25T07:21:00.901Z,405
2018-07-25T07:22:00.897Z,400
2018-07-25T07:23:00.384Z,405
2018-07-25T07:24:00.486Z,410
2018-07-25T07:25:00.151Z,410
2018-07-25T07:26:00.862Z,405
2018-07-25T07:27:00.674Z,395
2018-07-25T07:28:00.945Z,390
2018-07-25T07:29:00.689Z,395
2018-07-25T07:30:00.703Z,395
2018-07-25T07:31:00.713Z,400
2018-07-25T07:32:00.715Z,405
2018-07-25T07:33:01.136Z,395
2018-07-25T07:34:00.478Z,390
2018-07-25T07:35:00.551Z,385
2018-07-25T07:36:01.026Z,380
2018-07-25T07:37:00.508Z,380
2018-07-25T07:38:00.963Z,390
2018-07-25T07:39:01.051Z,400
2018-07-25T07:40:00.790Z,400
2018-07-25T07:41:01.065Z,400
2018-07-25T07:42:01.073Z,405
2018-07-25T07:43:00.830Z,410
2018-07-25T07:44:01.112Z,415
2018-07-25T07:45:01.097Z,395
2018-07-25T07:46:00.856Z,375
2018-07-25T07:47:00.867Z,320
2018-07-25T07:48:00.873Z,270
2018-07-25T07:49:01.155Z,240
2018-07-25T07:50:00.644Z,225
2018-07-25T07:51:01.163Z,210
2018-07-25T07:52:00.661Z,205
2018-07-25T07:53:00.666Z,195
2018-07-25T07:54:01.110Z,190
2018-07-25T07:55:01.012Z,185
2018-07-25T07:56:00.961Z,185
2018-07-25T07:57:01.264Z,185
2018-07-25T07:58:00.723Z,185
2018-07-25T07:59:01.243Z,185
2018-07-25T08:00:01.004Z,185
2018-07-25T08:01:01.057Z,185
2018-07-25T08:02:00.762Z,180
2018-07-25T08:03:01.025Z,180
2018-07-25T08:04:01.043Z,180
2018-07-25T08:05:01.657Z,185
2018-07-25T08:06:01.314Z,185
2018-07-25T08:07:01.328Z,185
2018-07-25T08:08:01.330Z,185
2018-07-25T08:09:01.335Z,185
2018-07-25T08:10:01.086Z,190
2018-07-25T08:11:01.351Z,195
2018-07-25T08:12:01.375Z,210
2018-07-25T08:13:01.386Z,210
2018-07-25T08:14:01.377Z,185
2018-07-25T08:15:01.384Z,190
2018-07-25T08:16:01.395Z,195
2018-07-25T08:17:01.143Z,230
2018-07-25T08:18:01.442Z,245
2018-07-25T08:19:00.946Z,265
2018-07-25T08:20:01.019Z,280
2018-07-25T08:21:01.018Z,295
2018-07-25T08:22:01.453Z,305
2018-07-25T08:23:01.449Z,310
2018-07-25T08:24:01.457Z,310
2018-07-25T08:25:01.471Z,290
2018-07-25T08:26:01.471Z,270
2018-07-25T08:27:01.487Z,260
2018-07-25T08:28:01.232Z,235
2018-07-25T08:29:00.974Z,210
2018-07-25T08:30:00.986Z,190
2018-07-25T08:31:01.256Z,195
2018-07-25T08:32:01.515Z,205
2018-07-25T08:33:01.575Z,210
2018-07-25T08:34:01.528Z,205
2018-07-25T08:35:01.508Z,200
2018-07-25T08:36:01.026Z,200
2018-07-25T08:37:01.039Z,220
2018-07-25T08:38:01.293Z,225
2018-07-25T08:39:01.306Z,220
2018-07-25T08:40:01.314Z,220
2018-07-25T08:41:01.580Z,205
2018-07-25T08:42:01.577Z,190
2018-07-25T08:43:01.067Z,195
2018-07-25T08:44:01.091Z,200
2018-07-25T08:45:01.340Z,195
2018-07-25T08:46:01.601Z,200
2018-07-25T08:47:01.197Z,200
2018-07-25T08:48:01.613Z,170
2018-07-25T08:49:01.621Z,165
2018-07-25T08:50:01.111Z,155
2018-07-25T08:51:01.383Z,145
2018-07-25T08:52:01.120Z,150
2018-07-25T08:53:01.583Z,170
2018-07-25T08:54:01.399Z,175
2018-07-25T08:55:01.658Z,175
2018-07-25T08:56:01.661Z,180
2018-07-25T08:57:01.401Z,185
2018-07-25T08:58:01.307Z,185
2018-07-25T08:59:01.421Z,160
2018-07-25T09:00:01.433Z,180
2018-07-25T09:01:01.423Z,180
2018-07-25T09:02:02.131Z,190
2018-07-25T09:03:01.432Z,200
2018-07-25T09:04:01.693Z,215
2018-07-25T09:05:01.713Z,225
2018-07-25T09:06:01.450Z,220
2018-07-25T09:07:01.459Z,200
2018-07-25T09:08:01.454Z,185
2018-07-25T09:09:01.725Z,185
2018-07-25T09:10:01.734Z,180
2018-07-25T09:11:01.728Z,180
2018-07-25T09:12:01.232Z,180
2018-07-25T09:13:01.654Z,180
2018-07-25T09:14:01.490Z,190
2018-07-25T09:15:01.745Z,190
2018-07-25T09:16:01.761Z,175
2018-07-25T09:17:01.840Z,185
2018-07-25T09:18:01.775Z,165
2018-07-25T09:19:01.849Z,145
2018-07-25T09:20:01.975Z,145
2018-07-25T09:21:01.263Z,175
2018-07-25T09:22:01.526Z,175
2018-07-25T09:23:01.284Z,175
2018-07-25T09:24:01.797Z,180
2018-07-25T09:25:01.796Z,195
2018-07-25T09:26:01.869Z,200
2018-07-25T09:27:01.841Z,195
2018-07-25T09:28:01.861Z,210
2018-07-25T09:29:01.862Z,215
2018-07-25T09:30:01.330Z,235
2018-07-25T09:31:01.609Z,250
2018-07-25T09:32:01.348Z,255
2018-07-25T09:33:02.334Z,235
2018-07-25T09:34:02.969Z,220
2018-07-25T09:35:01.874Z,230
2018-07-25T09:36:01.875Z,265
2018-07-25T09:37:01.366Z,285
2018-07-25T09:38:01.907Z,275
2018-07-25T09:39:01.682Z,260
2018-07-25T09:40:01.428Z,245
2018-07-25T09:41:03.849Z,240
2018-07-25T09:42:01.960Z,235
2018-07-25T09:43:02.007Z,255
2018-07-25T09:44:01.138Z,255
2018-07-25T09:45:02.032Z,295
2018-07-25T09:46:01.416Z,280
2018-07-25T09:47:02.563Z,265
2018-07-25T09:48:02.775Z,230
2018-07-25T09:49:01.740Z,200
2018-07-25T09:50:01.783Z,185
2018-07-25T09:51:01.476Z,190
2018-07-25T09:52:01.722Z,215
2018-07-25T09:53:02.507Z,275
2018-07-25T09:54:02.023Z,285
2018-07-25T09:55:02.914Z,280
2018-07-25T09:56:02.464Z,265
2018-07-25T09:57:01.479Z,280
2018-07-25T09:58:02.067Z,285
2018-07-25T09:59:02.547Z,325
2018-07-25T10:00:01.998Z,290
2018-07-25T10:01:02.441Z,265
2018-07-25T10:02:01.506Z,240
2018-07-25T10:03:03.020Z,225
2018-07-25T10:04:01.750Z,215
2018-07-25T10:05:01.807Z,210
2018-07-25T10:06:01.257Z,210
2018-07-25T10:07:01.645Z,220
2018-07-25T10:08:01.531Z,230
2018-07-25T10:09:01.826Z,235
2018-07-25T10:10:02.491Z,235
2018-07-25T10:11:02.125Z,250
2018-07-25T10:12:01.821Z,255
2018-07-25T10:13:01.587Z,265
2018-07-25T10:14:01.828Z,255
2018-07-25T10:15:02.400Z,280
2018-07-25T10:16:01.856Z,305
2018-07-25T10:17:02.153Z,330
2018-07-25T10:18:03.560Z,330
2018-07-25T10:19:02.112Z,300
2018-07-25T10:20:01.299Z,275
2018-07-25T10:21:02.463Z,255
2018-07-25T10:22:01.916Z,225
2018-07-25T10:23:01.951Z,215
2018-07-25T10:24:02.176Z,200
2018-07-25T10:25:02.385Z,220
2018-07-25T10:26:02.615Z,190
2018-07-25T10:27:02.000Z,190
2018-07-25T10:28:02.188Z,210
2018-07-25T10:29:01.877Z,250
2018-07-25T10:30:01.888Z,275
2018-07-25T10:31:01.908Z,290
2018-07-25T10:32:02.439Z,280
2018-07-25T10:33:04.107Z,285
2018-07-25T10:34:01.912Z,305
2018-07-25T10:35:01.647Z,315
2018-07-25T10:36:02.187Z,330
2018-07-25T10:37:01.372Z,365
2018-07-25T10:38:02.216Z,395
2018-07-25T10:39:02.532Z,380
2018-07-25T10:40:03.123Z,340
2018-07-25T10:41:02.719Z,310
2018-07-25T10:42:01.939Z,275
2018-07-25T10:43:01.676Z,260
2018-07-25T10:44:01.948Z,260
2018-07-25T10:45:01.701Z,270
2018-07-25T10:46:02.831Z,260
2018-07-25T10:47:01.976Z,260
2018-07-25T10:48:03.002Z,290
2018-07-25T10:49:02.654Z,300
2018-07-25T10:50:02.247Z,335
2018-07-25T10:51:02.241Z,340
2018-07-25T10:52:02.258Z,350
2018-07-25T10:53:02.261Z,370
2018-07-25T10:54:02.263Z,355
2018-07-25T10:55:02.426Z,335
2018-07-25T10:56:03.008Z,310
2018-07-25T10:57:02.300Z,295
2018-07-25T10:58:02.277Z,280
2018-07-25T10:59:01.772Z,300
2018-07-25T11:00:01.767Z,315
2018-07-25T11:01:02.081Z,325
2018-07-25T11:02:02.458Z,290
2018-07-25T11:03:02.981Z,290
2018-07-25T11:04:02.709Z,305
2018-07-25T11:05:02.116Z,260
2018-07-25T11:06:01.822Z,225
2018-07-25T11:07:02.377Z,230
2018-07-25T11:08:02.107Z,230
2018-07-25T11:09:02.346Z,220
2018-07-25T11:10:03.190Z,235
2018-07-25T11:11:02.320Z,245
2018-07-25T11:12:03.019Z,250
2018-07-25T11:13:02.110Z,250
2018-07-25T11:14:02.376Z,260
2018-07-25T11:15:02.106Z,260
2018-07-25T11:16:02.383Z,255
2018-07-25T11:17:01.860Z,245
2018-07-25T11:18:02.420Z,255
2018-07-25T11:19:03.328Z,230
2018-07-25T11:20:02.139Z,220
2018-07-25T11:21:02.150Z,220
2018-07-25T11:22:01.893Z,215
2018-07-25T11:23:02.843Z,235
2018-07-25T11:24:02.169Z,250
2018-07-25T11:25:02.163Z,265
2018-07-25T11:26:02.472Z,265
2018-07-25T11:27:03.291Z,240
2018-07-25T11:28:01.922Z,230
2018-07-25T11:29:02.445Z,230
2018-07-25T11:30:02.449Z,230
2018-07-25T11:31:02.178Z,230
2018-07-25T11:32:02.172Z,230
2018-07-25T11:33:02.752Z,215
2018-07-25T11:34:02.190Z,210
2018-07-25T11:35:01.943Z,210
2018-07-25T11:36:01.939Z,215
2018-07-25T11:37:02.203Z,220
2018-07-25T11:38:01.954Z,220
2018-07-25T11:39:02.504Z,235
2018-07-25T11:40:02.221Z,255
2018-07-25T11:41:02.489Z,280
2018-07-25T11:42:01.971Z,300
2018-07-25T11:43:02.237Z,320
2018-07-25T11:44:02.500Z,315
2018-07-25T11:45:01.984Z,335
2018-07-25T11:46:02.248Z,360
2018-07-25T11:47:02.259Z,350
2018-07-25T11:48:02.545Z,315
2018-07-25T11:49:02.275Z,300
2018-07-25T11:50:02.510Z,265
2018-07-25T11:51:02.281Z,235
2018-07-25T11:52:02.283Z,220
2018-07-25T11:53:02.290Z,205
2018-07-25T11:54:02.299Z,185
2018-07-25T11:55:02.310Z,170
2018-07-25T11:56:02.569Z,165
2018-07-25T11:57:02.318Z,170
2018-07-25T11:58:02.326Z,195
2018-07-25T11:59:02.334Z,200
2018-07-25T12:00:02.095Z,205
2018-07-25T12:01:02.675Z,210
2018-07-25T12:02:02.345Z,215
2018-07-25T12:03:02.604Z,215
2018-07-25T12:04:02.608Z,215
2018-07-25T12:05:02.617Z,210
2018-07-25T12:06:03.996Z,205
2018-07-25T12:07:02.509Z,205
2018-07-25T12:08:02.151Z,215
2018-07-25T12:09:02.459Z,215
2018-07-25T12:10:02.160Z,255
2018-07-25T12:11:02.737Z,330
2018-07-25T12:12:02.473Z,355
2018-07-25T12:13:01.686Z,345
2018-07-25T12:14:03.134Z,320
2018-07-25T12:15:02.710Z,295
2018-07-25T12:16:02.184Z,270
2018-07-25T12:17:02.755Z,290
2018-07-25T12:18:02.187Z,295
2018-07-25T12:19:02.747Z,280
2018-07-25T12:20:02.518Z,255
2018-07-25T12:21:04.134Z,255
2018-07-25T12:22:02.497Z,275
2018-07-25T12:23:02.771Z,305
2018-07-25T12:24:02.556Z,340
2018-07-25T12:25:02.785Z,350
2018-07-25T12:26:02.509Z,350
2018-07-25T12:27:02.698Z,305
2018-07-25T12:28:03.591Z,265
2018-07-25T12:29:02.008Z,230
2018-07-25T12:30:02.553Z,240
2018-07-25T12:31:02.841Z,250
2018-07-25T12:32:03.023Z,290
2018-07-25T12:33:02.836Z,320
2018-07-25T12:34:02.582Z,295
2018-07-25T12:35:03.568Z,260
2018-07-25T12:36:02.824Z,230
2018-07-25T12:37:02.168Z,230
2018-07-25T12:38:02.872Z,240
2018-07-25T12:39:02.866Z,245
2018-07-25T12:40:02.867Z,245
2018-07-25T12:41:02.587Z,235
2018-07-25T12:42:03.436Z,230
2018-07-25T12:43:03.587Z,230
2018-07-25T12:44:02.594Z,215
2018-07-25T12:45:02.878Z,195
2018-07-25T12:46:02.622Z,195
2018-07-25T12:47:02.644Z,205
2018-07-25T12:48:02.916Z,225
2018-07-25T12:49:02.907Z,255
2018-07-25T12:50:03.499Z,260
2018-07-25T12:51:02.377Z,260
2018-07-25T12:52:02.660Z,250
2018-07-25T12:53:02.957Z,235
2018-07-25T12:54:03.146Z,245
2018-07-25T12:55:02.932Z,250
2018-07-25T12:56:02.410Z,255
2018-07-25T12:57:02.209Z,230
2018-07-25T12:58:02.700Z,195
2018-07-25T12:59:02.451Z,170
2018-07-25T13:00:02.697Z,165
2018-07-25T13:01:02.703Z,175
2018-07-25T13:02:03.130Z,170
2018-07-25T13:03:03.251Z,180
2018-07-25T13:04:03.466Z,195
2018-07-25T13:05:03.078Z,225
2018-07-25T13:06:03.016Z,270
2018-07-25T13:07:02.745Z,315
2018-07-25T13:08:03.006Z,320
2018-07-25T13:09:02.770Z,315
2018-07-25T13:10:03.055Z,265
2018-07-25T13:11:02.773Z,220
2018-07-25T13:12:04.006Z,195
2018-07-25T13:13:03.066Z,200
2018-07-25T13:14:02.494Z,195
2018-07-25T13:15:03.058Z,180
2018-07-25T13:16:03.121Z,185
2018-07-25T13:17:02.817Z,185
2018-07-25T13:18:03.064Z,200
2018-07-25T13:19:03.800Z,205
2018-07-25T13:20:03.469Z,200
2018-07-25T13:21:02.802Z,185
2018-07-25T13:22:02.806Z,185
2018-07-25T13:23:03.388Z,185
2018-07-25T13:24:02.833Z,190
2018-07-25T13:25:02.852Z,210
2018-07-25T13:26:03.089Z,220
2018-07-25T13:27:04.604Z,235
2018-07-25T13:28:02.312Z,245
2018-07-25T13:29:03.151Z,255
2018-07-25T13:30:03.130Z,260
2018-07-25T13:31:03.161Z,260
2018-07-25T13:32:03.156Z,265
2018-07-25T13:33:02.887Z,260
2018-07-25T13:34:03.026Z,265
2018-07-25T13:35:03.834Z,255
2018-07-25T13:36:03.099Z,250
2018-07-25T13:37:03.341Z,235
2018-07-25T13:38:02.919Z,235
2018-07-25T13:39:03.170Z,240
2018-07-25T13:40:02.934Z,240
2018-07-25T13:41:03.212Z,205
2018-07-25T13:42:03.253Z,190
2018-07-25T13:43:03.736Z,185
2018-07-25T13:44:02.929Z,190
2018-07-25T13:45:02.929Z,200
2018-07-25T13:46:03.816Z,220
2018-07-25T13:47:03.213Z,250
2018-07-25T13:48:03.269Z,250
2018-07-25T13:49:04.197Z,240
2018-07-25T13:50:03.545Z,230
2018-07-25T13:51:03.248Z,240
2018-07-25T13:52:03.190Z,260
2018-07-25T13:53:02.719Z,260
2018-07-25T13:54:03.255Z,260
2018-07-25T13:55:03.035Z,275
2018-07-25T13:56:03.747Z,295
2018-07-25T13:57:03.585Z,300
2018-07-25T13:58:03.264Z,270
2018-07-25T13:59:03.310Z,240
2018-07-25T14:00:03.336Z,215
2018-07-25T14:01:03.063Z,200
2018-07-25T14:02:03.327Z,180
2018-07-25T14:03:03.058Z,180
2018-07-25T14:04:04.429Z,185